sensor_id;sensor_type;location;lat;lon;timestamp;temperature;humidity
45803;DHT22;31504;51.716;9.184;2023-12-04T00:01:53;19.20;39.50
45803;DHT22;31504;51.716;9.184;2023-12-04T00:04:54;19.20;40.20
45803;DHT22;31504;51.716;9.184;2023-12-04T00:07:54;19.10;39.50
45803;DHT22;31504;51.716;9.184;2023-12-04T00:10:54;19.20;39.60
45803;DHT22;31504;51.716;9.184;2023-12-04T00:13:55;19.20;39.60
45803;DHT22;31504;51.716;9.184;2023-12-04T00:16:55;19.20;39.50
45803;DHT22;31504;51.716;9.184;2023-12-04T00:19:56;19.10;39.50
45803;DHT22;31504;51.716;9.184;2023-12-04T00:22:56;19.10;39.50
45803;DHT22;31504;51.716;9.184;2023-12-04T00:25:57;19.10;39.50
45803;DHT22;31504;51.716;9.184;2023-12-04T00:28:57;19.20;39.50
45803;DHT22;31504;51.716;9.184;2023-12-04T00:31:58;19.20;39.50
45803;DHT22;31504;51.716;9.184;2023-12-04T00:34:58;19.20;39.50
45803;DHT22;31504;51.716;9.184;2023-12-04T00:37:59;19.20;39.60
45803;DHT22;31504;51.716;9.184;2023-12-04T00:40:59;19.10;39.50
45803;DHT22;31504;51.716;9.184;2023-12-04T00:44:00;19.10;39.60
45803;DHT22;31504;51.716;9.184;2023-12-04T00:47:00;19.10;39.50
45803;DHT22;31504;51.716;9.184;2023-12-04T00:50:01;19.20;39.50
45803;DHT22;31504;51.716;9.184;2023-12-04T00:53:01;19.20;39.50
45803;DHT22;31504;51.716;9.184;2023-12-04T00:56:02;19.20;39.50
45803;DHT22;31504;51.716;9.184;2023-12-04T00:59:02;19.20;39.50
45803;DHT22;31504;51.716;9.184;2023-12-04T01:02:04;19.10;39.40
45803;DHT22;31504;51.716;9.184;2023-12-04T01:05:05;19.10;39.50
45803;DHT22;31504;51.716;9.184;2023-12-04T01:08:05;19.10;40.00
45803;DHT22;31504;51.716;9.184;2023-12-04T01:11:06;19.10;39.40
45803;DHT22;31504;51.716;9.184;2023-12-04T01:14:06;19.20;39.50
45803;DHT22;31504;51.716;9.184;2023-12-04T01:17:07;19.20;39.50
45803;DHT22;31504;51.716;9.184;2023-12-04T01:20:08;19.10;39.40
45803;DHT22;31504;51.716;9.184;2023-12-04T01:23:09;19.10;39.50
45803;DHT22;31504;51.716;9.184;2023-12-04T01:26:09;19.10;39.50
45803;DHT22;31504;51.716;9.184;2023-12-04T01:29:10;19.10;39.40
45803;DHT22;31504;51.716;9.184;2023-12-04T01:32:10;19.10;39.50
45803;DHT22;31504;51.716;9.184;2023-12-04T01:35:11;19.10;39.40
45803;DHT22;31504;51.716;9.184;2023-12-04T01:38:11;19.10;39.40
45803;DHT22;31504;51.716;9.184;2023-12-04T01:41:12;19.10;39.40
45803;DHT22;31504;51.716;9.184;2023-12-04T01:44:12;19.10;39.40
45803;DHT22;31504;51.716;9.184;2023-12-04T01:47:13;19.10;39.40
45803;DHT22;31504;51.716;9.184;2023-12-04T01:50:14;19.10;39.40
45803;DHT22;31504;51.716;9.184;2023-12-04T01:53:14;19.10;39.40
45803;DHT22;31504;51.716;9.184;2023-12-04T01:56:15;19.20;39.40
45803;DHT22;31504;51.716;9.184;2023-12-04T01:59:16;19.10;39.30
45803;DHT22;31504;51.716;9.184;2023-12-04T02:02:16;19.10;39.40
45803;DHT22;31504;51.716;9.184;2023-12-04T02:05:17;19.10;39.40
45803;DHT22;31504;51.716;9.184;2023-12-04T02:08:18;19.10;39.40
45803;DHT22;31504;51.716;9.184;2023-12-04T02:11:19;19.10;39.40
45803;DHT22;31504;51.716;9.184;2023-12-04T02:14:19;19.10;39.40
45803;DHT22;31504;51.716;9.184;2023-12-04T02:17:19;19.20;39.40
45803;DHT22;31504;51.716;9.184;2023-12-04T02:20:20;19.10;39.30
45803;DHT22;31504;51.716;9.184;2023-12-04T02:23:21;19.10;39.40
45803;DHT22;31504;51.716;9.184;2023-12-04T02:26:22;19.10;39.30
45803;DHT22;31504;51.716;9.184;2023-12-04T02:29:29;19.10;39.40
45803;DHT22;31504;51.716;9.184;2023-12-04T02:32:31;19.10;39.40
45803;DHT22;31504;51.716;9.184;2023-12-04T02:35:34;19.10;39.40
45803;DHT22;31504;51.716;9.184;2023-12-04T02:38:35;19.10;39.40
45803;DHT22;31504;51.716;9.184;2023-12-04T02:41:35;19.10;39.40
45803;DHT22;31504;51.716;9.184;2023-12-04T02:44:36;19.10;39.30
45803;DHT22;31504;51.716;9.184;2023-12-04T02:47:36;19.10;39.50
45803;DHT22;31504;51.716;9.184;2023-12-04T02:50:37;19.10;39.40
45803;DHT22;31504;51.716;9.184;2023-12-04T02:53:37;19.10;39.40
45803;DHT22;31504;51.716;9.184;2023-12-04T02:56:38;19.10;39.30
45803;DHT22;31504;51.716;9.184;2023-12-04T02:59:38;19.10;39.30
45803;DHT22;31504;51.716;9.184;2023-12-04T03:02:38;19.10;39.20
45803;DHT22;31504;51.716;9.184;2023-12-04T03:05:39;19.10;39.20
45803;DHT22;31504;51.716;9.184;2023-12-04T03:08:39;19.10;39.10
45803;DHT22;31504;51.716;9.184;2023-12-04T03:11:40;19.10;39.10
45803;DHT22;31504;51.716;9.184;2023-12-04T03:14:41;19.10;39.00
45803;DHT22;31504;51.716;9.184;2023-12-04T03:17:41;19.20;38.90
45803;DHT22;31504;51.716;9.184;2023-12-04T03:20:42;19.20;38.80
45803;DHT22;31504;51.716;9.184;2023-12-04T03:23:42;19.20;38.70
45803;DHT22;31504;51.716;9.184;2023-12-04T03:26:43;19.20;38.80
45803;DHT22;31504;51.716;9.184;2023-12-04T03:29:43;19.20;38.80
45803;DHT22;31504;51.716;9.184;2023-12-04T03:32:44;19.20;38.80
45803;DHT22;31504;51.716;9.184;2023-12-04T03:35:44;19.30;38.80
45803;DHT22;31504;51.716;9.184;2023-12-04T03:38:44;19.30;38.80
45803;DHT22;31504;51.716;9.184;2023-12-04T03:41:46;19.20;38.80
45803;DHT22;31504;51.716;9.184;2023-12-04T03:44:47;19.30;39.00
45803;DHT22;31504;51.716;9.184;2023-12-04T03:47:47;19.20;38.90
45803;DHT22;31504;51.716;9.184;2023-12-04T03:50:47;19.20;39.00
45803;DHT22;31504;51.716;9.184;2023-12-04T03:53:48;19.20;39.10
45803;DHT22;31504;51.716;9.184;2023-12-04T03:56:48;19.20;39.10
45803;DHT22;31504;51.716;9.184;2023-12-04T03:59:49;19.20;39.10
45803;DHT22;31504;51.716;9.184;2023-12-04T04:02:49;19.20;39.10
45803;DHT22;31504;51.716;9.184;2023-12-04T04:05:50;19.20;39.10
45803;DHT22;31504;51.716;9.184;2023-12-04T04:08:50;19.20;39.10
45803;DHT22;31504;51.716;9.184;2023-12-04T04:11:52;19.20;39.10
45803;DHT22;31504;51.716;9.184;2023-12-04T04:14:53;19.10;39.00
45803;DHT22;31504;51.716;9.184;2023-12-04T04:17:53;19.20;39.10
45803;DHT22;31504;51.716;9.184;2023-12-04T04:20:53;19.20;39.10
45803;DHT22;31504;51.716;9.184;2023-12-04T04:23:54;19.10;39.10
45803;DHT22;31504;51.716;9.184;2023-12-04T04:26:54;19.10;39.10
45803;DHT22;31504;51.716;9.184;2023-12-04T04:29:55;19.10;39.10
45803;DHT22;31504;51.716;9.184;2023-12-04T04:32:55;19.10;39.10
45803;DHT22;31504;51.716;9.184;2023-12-04T04:35:56;19.10;39.10
45803;DHT22;31504;51.716;9.184;2023-12-04T04:38:56;19.10;39.00
45803;DHT22;31504;51.716;9.184;2023-12-04T04:41:57;19.10;39.00
45803;DHT22;31504;51.716;9.184;2023-12-04T04:44:57;19.10;39.70
45803;DHT22;31504;51.716;9.184;2023-12-04T04:47:58;19.10;39.00
45803;DHT22;31504;51.716;9.184;2023-12-04T04:50:58;19.10;39.10
45803;DHT22;31504;51.716;9.184;2023-12-04T04:53:58;19.10;39.00
45803;DHT22;31504;51.716;9.184;2023-12-04T04:56:59;19.10;39.00
45803;DHT22;31504;51.716;9.184;2023-12-04T04:59:59;19.10;39.00
45803;DHT22;31504;51.716;9.184;2023-12-04T05:03:00;19.10;39.20
45803;DHT22;31504;51.716;9.184;2023-12-04T05:06:00;19.10;39.30
45803;DHT22;31504;51.716;9.184;2023-12-04T05:09:01;19.10;39.20
45803;DHT22;31504;51.716;9.184;2023-12-04T05:12:01;19.10;39.10
45803;DHT22;31504;51.716;9.184;2023-12-04T05:15:02;19.10;39.70
45803;DHT22;31504;51.716;9.184;2023-12-04T05:18:02;19.10;39.00
45803;DHT22;31504;51.716;9.184;2023-12-04T05:21:03;19.10;38.90
45803;DHT22;31504;51.716;9.184;2023-12-04T05:24:03;19.10;38.90
45803;DHT22;31504;51.716;9.184;2023-12-04T05:27:04;19.10;38.90
45803;DHT22;31504;51.716;9.184;2023-12-04T05:30:04;19.10;38.90
45803;DHT22;31504;51.716;9.184;2023-12-04T05:33:05;19.10;38.90
45803;DHT22;31504;51.716;9.184;2023-12-04T05:36:06;19.10;39.00
45803;DHT22;31504;51.716;9.184;2023-12-04T05:39:07;19.10;38.90
45803;DHT22;31504;51.716;9.184;2023-12-04T05:42:07;19.10;39.00
45803;DHT22;31504;51.716;9.184;2023-12-04T05:45:08;19.10;38.90
45803;DHT22;31504;51.716;9.184;2023-12-04T05:48:09;19.10;38.90
45803;DHT22;31504;51.716;9.184;2023-12-04T05:51:10;19.10;38.90
45803;DHT22;31504;51.716;9.184;2023-12-04T05:54:11;19.10;39.00
45803;DHT22;31504;51.716;9.184;2023-12-04T05:57:12;19.10;39.00
45803;DHT22;31504;51.716;9.184;2023-12-04T06:00:12;19.00;38.90
45803;DHT22;31504;51.716;9.184;2023-12-04T06:03:13;19.10;38.90
45803;DHT22;31504;51.716;9.184;2023-12-04T06:06:13;19.10;38.90
45803;DHT22;31504;51.716;9.184;2023-12-04T06:09:14;19.10;38.90
45803;DHT22;31504;51.716;9.184;2023-12-04T06:12:17;19.10;38.90
45803;DHT22;31504;51.716;9.184;2023-12-04T06:15:17;19.10;39.20
45803;DHT22;31504;51.716;9.184;2023-12-04T06:18:18;19.10;38.90
45803;DHT22;31504;51.716;9.184;2023-12-04T06:21:20;19.10;38.90
45803;DHT22;31504;51.716;9.184;2023-12-04T06:24:21;19.10;38.90
45803;DHT22;31504;51.716;9.184;2023-12-04T06:27:21;19.10;38.90
45803;DHT22;31504;51.716;9.184;2023-12-04T06:30:22;19.10;38.80
45803;DHT22;31504;51.716;9.184;2023-12-04T06:33:23;19.10;38.80
45803;DHT22;31504;51.716;9.184;2023-12-04T06:36:23;19.10;38.80
45803;DHT22;31504;51.716;9.184;2023-12-04T06:39:24;19.10;38.90
45803;DHT22;31504;51.716;9.184;2023-12-04T06:42:25;19.10;38.90
45803;DHT22;31504;51.716;9.184;2023-12-04T06:45:26;19.10;38.90
45803;DHT22;31504;51.716;9.184;2023-12-04T06:48:27;19.00;38.80
45803;DHT22;31504;51.716;9.184;2023-12-04T06:51:28;19.00;38.80
45803;DHT22;31504;51.716;9.184;2023-12-04T06:54:28;19.10;38.80
45803;DHT22;31504;51.716;9.184;2023-12-04T06:57:29;19.10;38.80
45803;DHT22;31504;51.716;9.184;2023-12-04T07:00:29;19.00;38.80
45803;DHT22;31504;51.716;9.184;2023-12-04T07:03:30;19.10;38.80
45803;DHT22;31504;51.716;9.184;2023-12-04T07:06:31;19.10;38.80
45803;DHT22;31504;51.716;9.184;2023-12-04T07:09:31;19.00;38.80
45803;DHT22;31504;51.716;9.184;2023-12-04T07:12:32;19.00;38.80
45803;DHT22;31504;51.716;9.184;2023-12-04T07:15:32;19.00;38.80
45803;DHT22;31504;51.716;9.184;2023-12-04T07:18:33;19.00;38.80
45803;DHT22;31504;51.716;9.184;2023-12-04T07:21:33;19.00;38.70
45803;DHT22;31504;51.716;9.184;2023-12-04T07:24:34;19.00;38.80
45803;DHT22;31504;51.716;9.184;2023-12-04T07:27:34;19.00;38.80
45803;DHT22;31504;51.716;9.184;2023-12-04T07:30:35;19.00;38.80
45803;DHT22;31504;51.716;9.184;2023-12-04T07:33:35;19.10;38.80
45803;DHT22;31504;51.716;9.184;2023-12-04T07:36:35;19.10;38.80
45803;DHT22;31504;51.716;9.184;2023-12-04T07:39:36;19.10;38.80
45803;DHT22;31504;51.716;9.184;2023-12-04T07:42:37;19.00;38.80
45803;DHT22;31504;51.716;9.184;2023-12-04T07:45:37;19.00;38.80
45803;DHT22;31504;51.716;9.184;2023-12-04T07:48:38;19.00;38.90
45803;DHT22;31504;51.716;9.184;2023-12-04T07:51:38;19.00;38.70
45803;DHT22;31504;51.716;9.184;2023-12-04T07:54:38;19.10;38.80
45803;DHT22;31504;51.716;9.184;2023-12-04T07:57:39;19.10;38.80
45803;DHT22;31504;51.716;9.184;2023-12-04T08:00:40;19.00;38.80
45803;DHT22;31504;51.716;9.184;2023-12-04T08:03:40;19.00;38.70
45803;DHT22;31504;51.716;9.184;2023-12-04T08:06:40;19.00;38.70
45803;DHT22;31504;51.716;9.184;2023-12-04T08:09:41;19.00;38.80
45803;DHT22;31504;51.716;9.184;2023-12-04T08:12:43;19.00;38.70
45803;DHT22;31504;51.716;9.184;2023-12-04T08:15:45;19.00;38.70
45803;DHT22;31504;51.716;9.184;2023-12-04T08:18:45;19.00;38.70
45803;DHT22;31504;51.716;9.184;2023-12-04T08:21:46;19.10;38.70
45803;DHT22;31504;51.716;9.184;2023-12-04T08:24:46;19.10;38.70
45803;DHT22;31504;51.716;9.184;2023-12-04T08:27:47;19.00;38.70
45803;DHT22;31504;51.716;9.184;2023-12-04T08:30:49;19.00;38.70
45803;DHT22;31504;51.716;9.184;2023-12-04T08:33:50;19.00;38.60
45803;DHT22;31504;51.716;9.184;2023-12-04T08:36:50;19.00;38.60
45803;DHT22;31504;51.716;9.184;2023-12-04T08:39:51;19.10;38.60
45803;DHT22;31504;51.716;9.184;2023-12-04T08:42:52;19.10;38.60
45803;DHT22;31504;51.716;9.184;2023-12-04T08:45:52;19.10;38.60
45803;DHT22;31504;51.716;9.184;2023-12-04T08:48:53;19.10;38.60
45803;DHT22;31504;51.716;9.184;2023-12-04T08:51:53;19.10;38.70
45803;DHT22;31504;51.716;9.184;2023-12-04T08:54:54;19.10;38.70
45803;DHT22;31504;51.716;9.184;2023-12-04T08:57:54;19.10;38.80
45803;DHT22;31504;51.716;9.184;2023-12-04T09:00:55;19.20;38.80
45803;DHT22;31504;51.716;9.184;2023-12-04T09:03:55;19.10;38.80
45803;DHT22;31504;51.716;9.184;2023-12-04T09:06:56;19.10;38.90
45803;DHT22;31504;51.716;9.184;2023-12-04T09:09:56;19.10;39.00
45803;DHT22;31504;51.716;9.184;2023-12-04T09:12:57;19.10;39.10
45803;DHT22;31504;51.716;9.184;2023-12-04T09:15:57;19.10;39.00
45803;DHT22;31504;51.716;9.184;2023-12-04T09:18:58;19.10;39.00
45803;DHT22;31504;51.716;9.184;2023-12-04T09:21:59;19.10;38.90
45803;DHT22;31504;51.716;9.184;2023-12-04T09:24:59;19.10;38.90
45803;DHT22;31504;51.716;9.184;2023-12-04T09:28:00;19.10;38.90
45803;DHT22;31504;51.716;9.184;2023-12-04T09:31:00;19.10;38.90
45803;DHT22;31504;51.716;9.184;2023-12-04T09:34:01;19.10;38.90
45803;DHT22;31504;51.716;9.184;2023-12-04T09:37:01;19.10;38.90
45803;DHT22;31504;51.716;9.184;2023-12-04T09:40:02;19.10;38.90
45803;DHT22;31504;51.716;9.184;2023-12-04T09:43:03;19.10;38.90
45803;DHT22;31504;51.716;9.184;2023-12-04T09:46:04;19.10;38.80
45803;DHT22;31504;51.716;9.184;2023-12-04T09:49:04;19.10;38.80
45803;DHT22;31504;51.716;9.184;2023-12-04T09:52:06;19.20;39.00
45803;DHT22;31504;51.716;9.184;2023-12-04T09:55:06;19.20;39.00
45803;DHT22;31504;51.716;9.184;2023-12-04T09:58:07;19.30;39.10
45803;DHT22;31504;51.716;9.184;2023-12-04T10:01:09;19.20;39.10
45803;DHT22;31504;51.716;9.184;2023-12-04T10:04:10;19.20;39.20
45803;DHT22;31504;51.716;9.184;2023-12-04T10:07:11;19.30;39.20
45803;DHT22;31504;51.716;9.184;2023-12-04T10:10:11;19.20;39.20
45803;DHT22;31504;51.716;9.184;2023-12-04T10:13:12;19.30;39.20
45803;DHT22;31504;51.716;9.184;2023-12-04T10:16:12;19.30;39.30
45803;DHT22;31504;51.716;9.184;2023-12-04T10:19:26;19.30;39.20
45803;DHT22;31504;51.716;9.184;2023-12-04T10:22:27;19.30;39.30
45803;DHT22;31504;51.716;9.184;2023-12-04T10:25:28;19.30;39.30
45803;DHT22;31504;51.716;9.184;2023-12-04T10:28:29;19.30;39.30
45803;DHT22;31504;51.716;9.184;2023-12-04T10:31:33;19.30;39.40
45803;DHT22;31504;51.716;9.184;2023-12-04T10:34:34;19.30;39.40
45803;DHT22;31504;51.716;9.184;2023-12-04T10:37:36;19.20;39.40
45803;DHT22;31504;51.716;9.184;2023-12-04T10:40:37;19.20;39.40
45803;DHT22;31504;51.716;9.184;2023-12-04T10:43:37;19.30;39.40
45803;DHT22;31504;51.716;9.184;2023-12-04T10:46:46;19.20;39.30
45803;DHT22;31504;51.716;9.184;2023-12-04T10:49:51;19.30;39.30
45803;DHT22;31504;51.716;9.184;2023-12-04T10:52:52;19.30;39.20
45803;DHT22;31504;51.716;9.184;2023-12-04T10:55:54;19.30;39.30
45803;DHT22;31504;51.716;9.184;2023-12-04T10:58:56;19.30;39.30
45803;DHT22;31504;51.716;9.184;2023-12-04T11:01:58;19.30;39.20
45803;DHT22;31504;51.716;9.184;2023-12-04T11:05:02;19.30;39.20
45803;DHT22;31504;51.716;9.184;2023-12-04T11:08:05;19.30;39.20
45803;DHT22;31504;51.716;9.184;2023-12-04T11:11:12;19.30;39.30
45803;DHT22;31504;51.716;9.184;2023-12-04T11:14:13;19.30;39.30
45803;DHT22;31504;51.716;9.184;2023-12-04T11:17:16;19.30;39.30
45803;DHT22;31504;51.716;9.184;2023-12-04T11:20:18;19.30;39.30
45803;DHT22;31504;51.716;9.184;2023-12-04T11:23:19;19.30;39.20
45803;DHT22;31504;51.716;9.184;2023-12-04T11:26:20;19.30;39.20
45803;DHT22;31504;51.716;9.184;2023-12-04T11:29:22;19.30;39.20
45803;DHT22;31504;51.716;9.184;2023-12-04T11:32:24;19.30;39.20
45803;DHT22;31504;51.716;9.184;2023-12-04T11:35:25;19.30;39.40
45803;DHT22;31504;51.716;9.184;2023-12-04T11:38:25;19.20;39.50
45803;DHT22;31504;51.716;9.184;2023-12-04T11:41:26;19.20;39.50
45803;DHT22;31504;51.716;9.184;2023-12-04T11:44:26;19.10;39.50
45803;DHT22;31504;51.716;9.184;2023-12-04T11:47:30;19.10;39.40
45803;DHT22;31504;51.716;9.184;2023-12-04T11:50:31;19.10;39.40
45803;DHT22;31504;51.716;9.184;2023-12-04T11:53:39;19.10;39.40
45803;DHT22;31504;51.716;9.184;2023-12-04T11:56:40;19.10;39.40
45803;DHT22;31504;51.716;9.184;2023-12-04T11:59:41;19.10;39.40
45803;DHT22;31504;51.716;9.184;2023-12-04T12:02:46;19.10;39.30
45803;DHT22;31504;51.716;9.184;2023-12-04T12:05:47;19.10;39.30
45803;DHT22;31504;51.716;9.184;2023-12-04T12:08:48;19.10;39.20
45803;DHT22;31504;51.716;9.184;2023-12-04T12:11:49;19.10;39.20
45803;DHT22;31504;51.716;9.184;2023-12-04T12:14:50;19.10;39.20
45803;DHT22;31504;51.716;9.184;2023-12-04T12:17:50;19.10;39.20
45803;DHT22;31504;51.716;9.184;2023-12-04T12:20:54;19.10;39.10
45803;DHT22;31504;51.716;9.184;2023-12-04T12:23:55;19.10;39.20
45803;DHT22;31504;51.716;9.184;2023-12-04T12:26:55;19.10;39.10
45803;DHT22;31504;51.716;9.184;2023-12-04T12:29:56;19.10;39.10
45803;DHT22;31504;51.716;9.184;2023-12-04T12:32:56;19.10;39.10
45803;DHT22;31504;51.716;9.184;2023-12-04T12:35:58;19.00;39.00
45803;DHT22;31504;51.716;9.184;2023-12-04T12:38:59;19.00;39.00
45803;DHT22;31504;51.716;9.184;2023-12-04T12:42:00;19.00;39.00
45803;DHT22;31504;51.716;9.184;2023-12-04T12:45:01;19.00;39.00
45803;DHT22;31504;51.716;9.184;2023-12-04T12:48:03;19.00;38.90
45803;DHT22;31504;51.716;9.184;2023-12-04T12:51:03;19.10;38.80
45803;DHT22;31504;51.716;9.184;2023-12-04T12:54:04;19.10;38.80
45803;DHT22;31504;51.716;9.184;2023-12-04T12:57:04;19.10;38.80
45803;DHT22;31504;51.716;9.184;2023-12-04T13:00:06;19.20;38.90
45803;DHT22;31504;51.716;9.184;2023-12-04T13:03:13;19.20;38.80
45803;DHT22;31504;51.716;9.184;2023-12-04T13:06:13;19.20;38.90
45803;DHT22;31504;51.716;9.184;2023-12-04T13:09:14;19.20;39.10
45803;DHT22;31504;51.716;9.184;2023-12-04T13:12:19;19.20;39.20
45803;DHT22;31504;51.716;9.184;2023-12-04T13:15:20;19.20;39.40
45803;DHT22;31504;51.716;9.184;2023-12-04T13:18:20;19.30;39.40
45803;DHT22;31504;51.716;9.184;2023-12-04T13:21:21;19.30;39.50
45803;DHT22;31504;51.716;9.184;2023-12-04T13:24:21;19.30;39.60
45803;DHT22;31504;51.716;9.184;2023-12-04T13:27:22;19.30;39.60
45803;DHT22;31504;51.716;9.184;2023-12-04T13:30:22;19.30;39.60
45803;DHT22;31504;51.716;9.184;2023-12-04T13:33:23;19.30;39.70
45803;DHT22;31504;51.716;9.184;2023-12-04T13:36:23;19.30;39.70
45803;DHT22;31504;51.716;9.184;2023-12-04T13:39:24;19.30;39.80
45803;DHT22;31504;51.716;9.184;2023-12-04T13:42:39;19.30;39.70
45803;DHT22;31504;51.716;9.184;2023-12-04T13:45:58;19.30;39.60
45803;DHT22;31504;51.716;9.184;2023-12-04T13:48:59;19.30;39.40
45803;DHT22;31504;51.716;9.184;2023-12-04T13:51:59;19.30;39.30
45803;DHT22;31504;51.716;9.184;2023-12-04T13:55:00;19.30;39.40
45803;DHT22;31504;51.716;9.184;2023-12-04T13:58:00;19.40;39.40
45803;DHT22;31504;51.716;9.184;2023-12-04T14:01:10;19.40;39.60
45803;DHT22;31504;51.716;9.184;2023-12-04T14:04:14;19.40;39.70
45803;DHT22;31504;51.716;9.184;2023-12-04T14:07:15;19.40;39.80
45803;DHT22;31504;51.716;9.184;2023-12-04T14:10:15;19.40;39.80
45803;DHT22;31504;51.716;9.184;2023-12-04T14:13:16;19.40;39.90
45803;DHT22;31504;51.716;9.184;2023-12-04T14:16:17;19.40;39.90
45803;DHT22;31504;51.716;9.184;2023-12-04T14:19:17;19.40;39.90
45803;DHT22;31504;51.716;9.184;2023-12-04T14:22:21;19.40;40.20
45803;DHT22;31504;51.716;9.184;2023-12-04T14:25:21;19.30;40.50
45803;DHT22;31504;51.716;9.184;2023-12-04T14:28:22;19.30;41.00
45803;DHT22;31504;51.716;9.184;2023-12-04T14:31:23;19.30;41.40
45803;DHT22;31504;51.716;9.184;2023-12-04T14:34:23;19.40;41.80
45803;DHT22;31504;51.716;9.184;2023-12-04T14:37:24;19.40;42.00
45803;DHT22;31504;51.716;9.184;2023-12-04T14:40:25;19.40;42.20
45803;DHT22;31504;51.716;9.184;2023-12-04T14:43:25;19.40;42.20
45803;DHT22;31504;51.716;9.184;2023-12-04T14:46:25;19.40;42.30
45803;DHT22;31504;51.716;9.184;2023-12-04T14:49:26;19.40;42.50
45803;DHT22;31504;51.716;9.184;2023-12-04T14:52:26;19.40;42.60
45803;DHT22;31504;51.716;9.184;2023-12-04T14:55:28;19.50;42.60
45803;DHT22;31504;51.716;9.184;2023-12-04T14:58:49;19.40;42.60
45803;DHT22;31504;51.716;9.184;2023-12-04T15:02:21;19.40;42.60
45803;DHT22;31504;51.716;9.184;2023-12-04T15:05:41;19.40;42.60
45803;DHT22;31504;51.716;9.184;2023-12-04T15:08:41;19.40;42.60
45803;DHT22;31504;51.716;9.184;2023-12-04T15:12:00;19.40;42.60
45803;DHT22;31504;51.716;9.184;2023-12-04T15:15:03;19.40;42.40
45803;DHT22;31504;51.716;9.184;2023-12-04T15:18:23;19.40;42.20
45803;DHT22;31504;51.716;9.184;2023-12-04T15:21:42;19.40;42.00
45803;DHT22;31504;51.716;9.184;2023-12-04T15:24:43;19.40;41.90
45803;DHT22;31504;51.716;9.184;2023-12-04T15:27:43;19.40;41.70
45803;DHT22;31504;51.716;9.184;2023-12-04T15:30:44;19.40;41.40
45803;DHT22;31504;51.716;9.184;2023-12-04T15:33:45;19.40;41.30
45803;DHT22;31504;51.716;9.184;2023-12-04T15:36:45;19.40;41.10
45803;DHT22;31504;51.716;9.184;2023-12-04T15:39:46;19.40;40.90
45803;DHT22;31504;51.716;9.184;2023-12-04T15:42:46;19.40;40.80
45803;DHT22;31504;51.716;9.184;2023-12-04T15:45:47;19.40;40.70
45803;DHT22;31504;51.716;9.184;2023-12-04T15:48:48;19.30;40.60
45803;DHT22;31504;51.716;9.184;2023-12-04T15:51:48;19.30;40.50
45803;DHT22;31504;51.716;9.184;2023-12-04T15:54:49;19.30;40.30
45803;DHT22;31504;51.716;9.184;2023-12-04T15:57:49;19.40;40.30
45803;DHT22;31504;51.716;9.184;2023-12-04T16:00:55;19.40;40.30
45803;DHT22;31504;51.716;9.184;2023-12-04T16:03:55;19.30;40.20
45803;DHT22;31504;51.716;9.184;2023-12-04T16:06:55;19.40;40.30
45803;DHT22;31504;51.716;9.184;2023-12-04T16:09:56;19.30;40.20
45803;DHT22;31504;51.716;9.184;2023-12-04T16:12:56;19.40;40.20
45803;DHT22;31504;51.716;9.184;2023-12-04T16:15:57;19.40;40.20
45803;DHT22;31504;51.716;9.184;2023-12-04T16:18:57;19.40;40.20
45803;DHT22;31504;51.716;9.184;2023-12-04T16:21:58;19.40;40.10
45803;DHT22;31504;51.716;9.184;2023-12-04T16:24:58;19.40;40.10
45803;DHT22;31504;51.716;9.184;2023-12-04T16:27:59;19.30;40.10
45803;DHT22;31504;51.716;9.184;2023-12-04T16:30:59;19.30;40.10
45803;DHT22;31504;51.716;9.184;2023-12-04T16:34:00;19.30;40.60
45803;DHT22;31504;51.716;9.184;2023-12-04T16:37:00;19.30;39.90
45803;DHT22;31504;51.716;9.184;2023-12-04T16:40:01;19.40;39.90
45803;DHT22;31504;51.716;9.184;2023-12-04T16:43:03;19.40;39.90
45803;DHT22;31504;51.716;9.184;2023-12-04T16:46:03;19.30;40.10
45803;DHT22;31504;51.716;9.184;2023-12-04T16:49:04;19.30;39.60
45803;DHT22;31504;51.716;9.184;2023-12-04T16:52:04;19.30;39.60
45803;DHT22;31504;51.716;9.184;2023-12-04T16:55:05;19.30;39.60
45803;DHT22;31504;51.716;9.184;2023-12-04T16:58:05;19.30;39.40
45803;DHT22;31504;51.716;9.184;2023-12-04T17:01:07;19.40;39.40
45803;DHT22;31504;51.716;9.184;2023-12-04T17:04:07;19.40;39.40
45803;DHT22;31504;51.716;9.184;2023-12-04T17:07:08;19.30;39.30
45803;DHT22;31504;51.716;9.184;2023-12-04T17:10:08;19.30;39.30
45803;DHT22;31504;51.716;9.184;2023-12-04T17:13:11;19.40;39.40
45803;DHT22;31504;51.716;9.184;2023-12-04T17:16:12;19.40;39.40
45803;DHT22;31504;51.716;9.184;2023-12-04T17:19:12;19.40;39.30
45803;DHT22;31504;51.716;9.184;2023-12-04T17:22:13;19.40;39.40
45803;DHT22;31504;51.716;9.184;2023-12-04T17:25:13;19.30;39.40
45803;DHT22;31504;51.716;9.184;2023-12-04T17:28:14;19.40;39.50
45803;DHT22;31504;51.716;9.184;2023-12-04T17:31:17;19.30;39.50
45803;DHT22;31504;51.716;9.184;2023-12-04T17:34:18;19.40;39.60
45803;DHT22;31504;51.716;9.184;2023-12-04T17:37:19;19.40;39.60
45803;DHT22;31504;51.716;9.184;2023-12-04T17:40:20;19.30;39.50
45803;DHT22;31504;51.716;9.184;2023-12-04T17:43:21;19.40;39.50
45803;DHT22;31504;51.716;9.184;2023-12-04T17:46:22;19.40;39.60
45803;DHT22;31504;51.716;9.184;2023-12-04T17:49:22;19.40;39.60
45803;DHT22;31504;51.716;9.184;2023-12-04T17:52:23;19.40;39.50
45803;DHT22;31504;51.716;9.184;2023-12-04T17:55:23;19.40;39.50
45803;DHT22;31504;51.716;9.184;2023-12-04T17:58:24;19.40;39.60
45803;DHT22;31504;51.716;9.184;2023-12-04T18:01:24;19.40;39.50
45803;DHT22;31504;51.716;9.184;2023-12-04T18:04:24;19.40;39.60
45803;DHT22;31504;51.716;9.184;2023-12-04T18:07:25;19.40;39.70
45803;DHT22;31504;51.716;9.184;2023-12-04T18:10:26;19.40;39.70
45803;DHT22;31504;51.716;9.184;2023-12-04T18:13:27;19.40;39.70
45803;DHT22;31504;51.716;9.184;2023-12-04T18:16:27;19.40;39.90
45803;DHT22;31504;51.716;9.184;2023-12-04T18:19:28;19.30;39.80
45803;DHT22;31504;51.716;9.184;2023-12-04T18:22:28;19.30;39.80
45803;DHT22;31504;51.716;9.184;2023-12-04T18:25:29;19.30;39.80
45803;DHT22;31504;51.716;9.184;2023-12-04T18:28:29;19.30;39.90
45803;DHT22;31504;51.716;9.184;2023-12-04T18:31:30;19.30;39.80
45803;DHT22;31504;51.716;9.184;2023-12-04T18:34:30;19.30;39.80
45803;DHT22;31504;51.716;9.184;2023-12-04T18:40:50;19.30;39.80
45803;DHT22;31504;51.716;9.184;2023-12-04T18:43:51;19.20;39.80
45803;DHT22;31504;51.716;9.184;2023-12-04T18:46:54;19.20;39.70
45803;DHT22;31504;51.716;9.184;2023-12-04T18:49:55;19.20;39.70
45803;DHT22;31504;51.716;9.184;2023-12-04T18:52:57;19.20;39.70
45803;DHT22;31504;51.716;9.184;2023-12-04T18:55:58;19.20;39.70
45803;DHT22;31504;51.716;9.184;2023-12-04T18:58:58;19.20;40.20
45803;DHT22;31504;51.716;9.184;2023-12-04T19:02:01;19.20;39.50
45803;DHT22;31504;51.716;9.184;2023-12-04T19:05:02;19.20;39.50
45803;DHT22;31504;51.716;9.184;2023-12-04T19:08:02;19.20;39.50